sensor_id;sensor_type;location;lat;lon;timestamp;pressure;altitude;pressure_sealevel;temperature;humidity
69171;BME280;56279;47.902;12.308;2023-01-30T00:00:20;95995.63;;;-4.06;90.51
69171;BME280;56279;47.902;12.308;2023-01-30T00:02:21;95992.25;;;-4.07;91.02
69171;BME280;56279;47.902;12.308;2023-01-30T00:04:23;95983.09;;;-4.09;90.88
69171;BME280;56279;47.902;12.308;2023-01-30T00:06:24;95981.47;;;-4.10;90.35
69171;BME280;56279;47.902;12.308;2023-01-30T00:08:26;95978.25;;;-4.12;90.48
69171;BME280;56279;47.902;12.308;2023-01-30T00:10:27;95977.63;;;-4.14;90.74
69171;BME280;56279;47.902;12.308;2023-01-30T00:12:28;95976.03;;;-4.15;90.52
69171;BME280;56279;47.902;12.308;2023-01-30T00:14:29;95976.03;;;-4.15;90.86
69171;BME280;56279;47.902;12.308;2023-01-30T00:16:31;95970.91;;;-4.15;90.75
69171;BME280;56279;47.902;12.308;2023-01-30T00:18:32;95968.47;;;-4.17;90.71
69171;BME280;56279;47.902;12.308;2023-01-30T00:20:35;95962.50;;;-4.18;90.42
69171;BME280;56279;47.902;12.308;2023-01-30T00:22:36;95957.34;;;-4.18;90.42
69171;BME280;56279;47.902;12.308;2023-01-30T00:24:38;95956.72;;;-4.20;90.88
69171;BME280;56279;47.902;12.308;2023-01-30T00:26:39;95958.50;;;-4.20;90.90
69171;BME280;56279;47.902;12.308;2023-01-30T00:28:43;95959.31;;;-4.20;90.50
69171;BME280;56279;47.902;12.308;2023-01-30T00:30:46;95950.13;;;-4.22;91.16
69171;BME280;56279;47.902;12.308;2023-01-30T00:32:53;95951.28;;;-4.25;90.81
69171;BME280;56279;47.902;12.308;2023-01-30T00:34:54;95962.75;;;-4.27;90.64
69171;BME280;56279;47.902;12.308;2023-01-30T00:36:55;95955.16;;;-4.29;90.96
69171;BME280;56279;47.902;12.308;2023-01-30T00:38:56;95962.09;;;-4.29;90.93
69171;BME280;56279;47.902;12.308;2023-01-30T00:40:59;95959.69;;;-4.31;91.39
69171;BME280;56279;47.902;12.308;2023-01-30T00:43:00;95950.19;;;-4.30;90.82
69171;BME280;56279;47.902;12.308;2023-01-30T00:45:20;95945.19;;;-4.32;91.19
69171;BME280;56279;47.902;12.308;2023-01-30T00:47:42;95936.69;;;-4.32;91.45
69171;BME280;56279;47.902;12.308;2023-01-30T00:49:43;95940.03;;;-4.32;91.42
69171;BME280;56279;47.902;12.308;2023-01-30T00:51:45;95939.91;;;-4.30;91.28
69171;BME280;56279;47.902;12.308;2023-01-30T00:53:47;95939.72;;;-4.29;91.62
69171;BME280;56279;47.902;12.308;2023-01-30T00:55:52;95932.97;;;-4.30;90.94
69171;BME280;56279;47.902;12.308;2023-01-30T00:57:55;95928.78;;;-4.31;90.77
69171;BME280;56279;47.902;12.308;2023-01-30T00:59:57;95924.44;;;-4.30;91.50
69171;BME280;56279;47.902;12.308;2023-01-30T01:01:58;95928.16;;;-4.33;90.96
69171;BME280;56279;47.902;12.308;2023-01-30T01:03:59;95930.09;;;-4.35;90.93
69171;BME280;56279;47.902;12.308;2023-01-30T01:06:00;95925.47;;;-4.39;91.69
69171;BME280;56279;47.902;12.308;2023-01-30T01:08:03;95922.09;;;-4.40;91.62
69171;BME280;56279;47.902;12.308;2023-01-30T01:10:04;95918.88;;;-4.42;91.64
69171;BME280;56279;47.902;12.308;2023-01-30T01:12:06;95920.66;;;-4.42;91.51
69171;BME280;56279;47.902;12.308;2023-01-30T01:14:08;95912.13;;;-4.43;91.73
69171;BME280;56279;47.902;12.308;2023-01-30T01:16:09;95912.28;;;-4.44;91.73
69171;BME280;56279;47.902;12.308;2023-01-30T01:18:11;95915.03;;;-4.46;91.14
69171;BME280;56279;47.902;12.308;2023-01-30T01:20:13;95916.00;;;-4.47;91.92
69171;BME280;56279;47.902;12.308;2023-01-30T01:22:14;95912.81;;;-4.49;90.89
69171;BME280;56279;47.902;12.308;2023-01-30T01:24:16;95914.75;;;-4.51;90.85
69171;BME280;56279;47.902;12.308;2023-01-30T01:26:18;95913.31;;;-4.53;91.76
69171;BME280;56279;47.902;12.308;2023-01-30T01:28:19;95905.59;;;-4.53;91.76
69171;BME280;56279;47.902;12.308;2023-01-30T01:30:22;95904.78;;;-4.54;91.52
69171;BME280;56279;47.902;12.308;2023-01-30T01:32:24;95898.19;;;-4.56;90.88
69171;BME280;56279;47.902;12.308;2023-01-30T01:34:25;95899.34;;;-4.59;91.06
69171;BME280;56279;47.902;12.308;2023-01-30T01:36:26;95899.66;;;-4.62;91.65
69171;BME280;56279;47.902;12.308;2023-01-30T01:38:28;95886.97;;;-4.63;92.02
69171;BME280;56279;47.902;12.308;2023-01-30T01:40:29;95883.59;;;-4.64;92.03
69171;BME280;56279;47.902;12.308;2023-01-30T01:42:49;95873.13;;;-4.62;91.53
69171;BME280;56279;47.902;12.308;2023-01-30T01:47:04;95859.75;;;-4.58;92.04
69171;BME280;56279;47.902;12.308;2023-01-30T01:49:33;95864.53;;;-4.55;91.05
69171;BME280;56279;47.902;12.308;2023-01-30T01:51:45;95863.41;;;-4.52;90.85
69171;BME280;56279;47.902;12.308;2023-01-30T01:53:55;95855.69;;;-4.52;91.18
69171;BME280;56279;47.902;12.308;2023-01-30T01:55:59;95855.06;;;-4.54;91.03
69171;BME280;56279;47.902;12.308;2023-01-30T01:58:17;95861.97;;;-4.55;90.84
69171;BME280;56279;47.902;12.308;2023-01-30T02:00:21;95869.06;;;-4.57;91.50
69171;BME280;56279;47.902;12.308;2023-01-30T02:02:24;95871.63;;;-4.57;91.58
69171;BME280;56279;47.902;12.308;2023-01-30T02:04:26;95873.41;;;-4.57;91.35
69171;BME280;56279;47.902;12.308;2023-01-30T02:06:46;95872.78;;;-4.59;91.45
69171;BME280;56279;47.902;12.308;2023-01-30T02:08:52;95869.44;;;-4.60;91.12
69171;BME280;56279;47.902;12.308;2023-01-30T02:13:25;95853.31;;;-4.62;91.45
69171;BME280;56279;47.902;12.308;2023-01-30T02:15:28;95848.34;;;-4.63;91.75
69171;BME280;56279;47.902;12.308;2023-01-30T02:17:29;95844.00;;;-4.63;91.90
69171;BME280;56279;47.902;12.308;2023-01-30T02:19:47;95844.63;;;-4.61;91.22
69171;BME280;56279;47.902;12.308;2023-01-30T02:22:30;95842.06;;;-4.61;92.05
69171;BME280;56279;47.902;12.308;2023-01-30T02:27:19;95850.75;;;-4.62;91.05
69171;BME280;56279;47.902;12.308;2023-01-30T02:31:42;95847.91;;;-4.67;91.40
69171;BME280;56279;47.902;12.308;2023-01-30T02:47:48;95846.84;;;-4.80;91.78
69171;BME280;56279;47.902;12.308;2023-01-30T02:49:59;95853.78;;;-4.81;92.25
69171;BME280;56279;47.902;12.308;2023-01-30T02:52:07;95869.72;;;-4.85;91.74
69171;BME280;56279;47.902;12.308;2023-01-30T02:54:11;95877.59;;;-4.87;92.11
69171;BME280;56279;47.902;12.308;2023-01-30T02:56:14;95866.84;;;-4.91;92.32
69171;BME280;56279;47.902;12.308;2023-01-30T02:58:19;95854.31;;;-4.94;91.84
69171;BME280;56279;47.902;12.308;2023-01-30T03:00:29;95857.22;;;-4.97;91.91
69171;BME280;56279;47.902;12.308;2023-01-30T03:07:15;95863.50;;;-4.99;92.38
69171;BME280;56279;47.902;12.308;2023-01-30T03:11:54;95860.13;;;-5.00;92.50
69171;BME280;56279;47.902;12.308;2023-01-30T03:14:28;95858.34;;;-4.99;92.38
69171;BME280;56279;47.902;12.308;2023-01-30T03:16:37;95843.09;;;-5.01;91.68
69171;BME280;56279;47.902;12.308;2023-01-30T03:18:40;95850.63;;;-4.99;91.63
69171;BME280;56279;47.902;12.308;2023-01-30T03:20:42;95859.97;;;-4.98;91.79
69171;BME280;56279;47.902;12.308;2023-01-30T03:22:44;95864.31;;;-4.99;92.38
69171;BME280;56279;47.902;12.308;2023-01-30T03:24:46;95869.28;;;-4.97;91.91
69171;BME280;56279;47.902;12.308;2023-01-30T03:26:56;95875.06;;;-4.95;91.68
69171;BME280;56279;47.902;12.308;2023-01-30T03:28:59;95876.66;;;-4.94;91.93
69171;BME280;56279;47.902;12.308;2023-01-30T03:31:01;95878.09;;;-4.92;92.31
69171;BME280;56279;47.902;12.308;2023-01-30T03:33:03;95879.88;;;-4.92;92.17
69171;BME280;56279;47.902;12.308;2023-01-30T03:35:04;95877.13;;;-4.91;91.58
69171;BME280;56279;47.902;12.308;2023-01-30T03:37:06;95881.47;;;-4.91;91.72
69171;BME280;56279;47.902;12.308;2023-01-30T03:39:10;95880.50;;;-4.90;91.44
69171;BME280;56279;47.902;12.308;2023-01-30T03:41:11;95875.34;;;-4.90;91.39
69171;BME280;56279;47.902;12.308;2023-01-30T03:43:13;95882.28;;;-4.91;92.13
69171;BME280;56279;47.902;12.308;2023-01-30T03:45:16;95886.63;;;-4.91;92.57
69171;BME280;56279;47.902;12.308;2023-01-30T03:47:20;95885.63;;;-4.90;91.59
69171;BME280;56279;47.902;12.308;2023-01-30T03:49:24;95889.03;;;-4.90;91.95
69171;BME280;56279;47.902;12.308;2023-01-30T03:51:26;95883.72;;;-4.88;91.62
69171;BME280;56279;47.902;12.308;2023-01-30T03:53:27;95885.16;;;-4.85;91.66
69171;BME280;56279;47.902;12.308;2023-01-30T03:55:29;95879.66;;;-4.82;91.74
69171;BME280;56279;47.902;12.308;2023-01-30T03:57:31;95879.66;;;-4.82;92.31
69171;BME280;56279;47.902;12.308;2023-01-30T03:59:33;95891.41;;;-4.80;91.54
69171;BME280;56279;47.902;12.308;2023-01-30T04:01:41;95886.88;;;-4.78;92.47
69171;BME280;56279;47.902;12.308;2023-01-30T04:03:42;95887.69;;;-4.77;91.48
69171;BME280;56279;47.902;12.308;2023-01-30T04:05:44;95893.63;;;-4.77;91.64
69171;BME280;56279;47.902;12.308;2023-01-30T04:07:45;95898.78;;;-4.77;91.62
69171;BME280;56279;47.902;12.308;2023-01-30T04:09:46;95903.94;;;-4.77;91.84
69171;BME280;56279;47.902;12.308;2023-01-30T04:11:48;95897.81;;;-4.76;91.88
69171;BME280;56279;47.902;12.308;2023-01-30T04:13:50;95876.44;;;-4.76;92.37
69171;BME280;56279;47.902;12.308;2023-01-30T04:15:51;95865.31;;;-4.77;91.50
69171;BME280;56279;47.902;12.308;2023-01-30T04:18:32;95865.50;;;-4.78;92.26
69171;BME280;56279;47.902;12.308;2023-01-30T04:20:41;95874.63;;;-4.76;92.41
69171;BME280;56279;47.902;12.308;2023-01-30T04:22:42;95875.13;;;-4.72;91.58
69171;BME280;56279;47.902;12.308;2023-01-30T04:24:43;95865.28;;;-4.69;91.66
69171;BME280;56279;47.902;12.308;2023-01-30T04:26:45;95865.75;;;-4.65;91.65
69171;BME280;56279;47.902;12.308;2023-01-30T04:28:47;95857.84;;;-4.64;91.79
69171;BME280;56279;47.902;12.308;2023-01-30T04:30:48;95861.03;;;-4.62;91.41
69171;BME280;56279;47.902;12.308;2023-01-30T04:33:11;95854.59;;;-4.58;91.87
69171;BME280;56279;47.902;12.308;2023-01-30T04:35:14;95850.09;;;-4.56;91.55
69171;BME280;56279;47.902;12.308;2023-01-30T04:37:15;95852.78;;;-4.49;92.05
69171;BME280;56279;47.902;12.308;2023-01-30T04:39:17;95859.16;;;-4.45;91.68
69171;BME280;56279;47.902;12.308;2023-01-30T04:41:19;95839.66;;;-4.40;91.40
69171;BME280;56279;47.902;12.308;2023-01-30T04:43:21;95834.00;;;-4.35;91.92
69171;BME280;56279;47.902;12.308;2023-01-30T04:45:44;95859.25;;;-4.31;91.07
69171;BME280;56279;47.902;12.308;2023-01-30T04:47:48;95858.91;;;-4.28;91.42
69171;BME280;56279;47.902;12.308;2023-01-30T04:49:50;95865.50;;;-4.25;90.65
69171;BME280;56279;47.902;12.308;2023-01-30T04:51:52;95869.66;;;-4.24;91.23
69171;BME280;56279;47.902;12.308;2023-01-30T04:53:55;95873.84;;;-4.23;90.57
69171;BME280;56279;47.902;12.308;2023-01-30T04:55:57;95877.22;;;-4.23;90.71
69171;BME280;56279;47.902;12.308;2023-01-30T04:58:00;95875.63;;;-4.24;91.00
69171;BME280;56279;47.902;12.308;2023-01-30T05:00:02;95874.28;;;-4.20;91.26
69171;BME280;56279;47.902;12.308;2023-01-30T05:02:04;95865.25;;;-4.15;91.52
69171;BME280;56279;47.902;12.308;2023-01-30T05:04:06;95860.72;;;-4.13;90.89
69171;BME280;56279;47.902;12.308;2023-01-30T05:06:07;95857.97;;;-4.12;90.56
69171;BME280;56279;47.902;12.308;2023-01-30T05:08:08;95865.53;;;-4.10;91.22
69171;BME280;56279;47.902;12.308;2023-01-30T05:10:10;95860.03;;;-4.07;91.25
69171;BME280;56279;47.902;12.308;2023-01-30T05:12:11;95852.91;;;-4.05;91.14
69171;BME280;56279;47.902;12.308;2023-01-30T05:14:12;95853.72;;;-4.05;90.12
69171;BME280;56279;47.902;12.308;2023-01-30T05:16:15;95844.22;;;-4.04;90.45
69171;BME280;56279;47.902;12.308;2023-01-30T05:18:18;95828.78;;;-4.04;91.15
69171;BME280;56279;47.902;12.308;2023-01-30T05:20:19;95822.00;;;-4.05;90.23
69171;BME280;56279;47.902;12.308;2023-01-30T05:22:20;95824.56;;;-4.05;90.79
69171;BME280;56279;47.902;12.308;2023-01-30T05:24:21;95815.88;;;-4.04;90.69
69171;BME280;56279;47.902;12.308;2023-01-30T05:26:23;95813.31;;;-4.04;90.73
69171;BME280;56279;47.902;12.308;2023-01-30T05:28:24;95808.16;;;-4.04;90.31
69171;BME280;56279;47.902;12.308;2023-01-30T05:30:26;95795.44;;;-4.06;90.54
69171;BME280;56279;47.902;12.308;2023-01-30T05:32:27;95799.19;;;-4.08;90.09
69171;BME280;56279;47.902;12.308;2023-01-30T05:34:31;95800.47;;;-4.12;90.62
69171;BME280;56279;47.902;12.308;2023-01-30T05:36:32;95791.50;;;-4.16;91.09
69171;BME280;56279;47.902;12.308;2023-01-30T05:38:33;95788.47;;;-4.20;90.40
69171;BME280;56279;47.902;12.308;2023-01-30T05:40:34;95778.53;;;-4.23;90.11
69171;BME280;56279;47.902;12.308;2023-01-30T05:42:35;95784.03;;;-4.26;90.37
69171;BME280;56279;47.902;12.308;2023-01-30T05:44:37;95794.03;;;-4.31;91.04
69171;BME280;56279;47.902;12.308;2023-01-30T05:46:38;95812.78;;;-4.37;90.68
69171;BME280;56279;47.902;12.308;2023-01-30T05:48:39;95800.56;;;-4.43;90.21
69171;BME280;56279;47.902;12.308;2023-01-30T05:50:42;95788.59;;;-4.51;90.36
69171;BME280;56279;47.902;12.308;2023-01-30T05:52:43;95786.69;;;-4.57;91.13
69171;BME280;56279;47.902;12.308;2023-01-30T05:54:44;95776.09;;;-4.62;91.35
69171;BME280;56279;47.902;12.308;2023-01-30T05:56:48;95766.16;;;-4.65;90.97
69171;BME280;56279;47.902;12.308;2023-01-30T05:58:52;95768.25;;;-4.68;90.79
69171;BME280;56279;47.902;12.308;2023-01-30T06:01:09;95770.38;;;-4.72;91.16
69171;BME280;56279;47.902;12.308;2023-01-30T06:03:11;95770.72;;;-4.75;91.16
69171;BME280;56279;47.902;12.308;2023-01-30T06:05:12;95767.53;;;-4.77;91.03
69171;BME280;56279;47.902;12.308;2023-01-30T06:07:13;95778.00;;;-4.78;90.86
69171;BME280;56279;47.902;12.308;2023-01-30T06:09:15;95780.72;;;-4.80;90.81
69171;BME280;56279;47.902;12.308;2023-01-30T06:11:17;95776.56;;;-4.81;91.39
69171;BME280;56279;47.902;12.308;2023-01-30T06:13:18;95771.75;;;-4.84;91.88
69171;BME280;56279;47.902;12.308;2023-01-30T06:15:19;95766.94;;;-4.87;91.21
69171;BME280;56279;47.902;12.308;2023-01-30T06:17:21;95763.75;;;-4.89;91.38
69171;BME280;56279;47.902;12.308;2023-01-30T06:19:22;95774.38;;;-4.92;91.17
69171;BME280;56279;47.902;12.308;2023-01-30T06:21:24;95761.50;;;-4.92;91.44
69171;BME280;56279;47.902;12.308;2023-01-30T06:23:27;95759.91;;;-4.93;91.72
69171;BME280;56279;47.902;12.308;2023-01-30T06:25:28;95752.53;;;-4.96;91.52
69171;BME280;56279;47.902;12.308;2023-01-30T06:27:32;95752.72;;;-4.98;91.12
69171;BME280;56279;47.902;12.308;2023-01-30T06:29:33;95751.91;;;-4.98;91.65
69171;BME280;56279;47.902;12.308;2023-01-30T06:31:35;95751.28;;;-5.00;91.41
69171;BME280;56279;47.902;12.308;2023-01-30T06:33:36;95749.66;;;-5.01;91.12
69171;BME280;56279;47.902;12.308;2023-01-30T06:35:38;95745.03;;;-5.06;92.06
69171;BME280;56279;47.902;12.308;2023-01-30T06:37:39;95757.88;;;-5.06;91.73
69171;BME280;56279;47.902;12.308;2023-01-30T06:39:41;95757.75;;;-5.04;91.96
69171;BME280;56279;47.902;12.308;2023-01-30T06:41:42;95764.66;;;-5.05;91.79
69171;BME280;56279;47.902;12.308;2023-01-30T06:43:43;95766.88;;;-5.02;91.99
69171;BME280;56279;47.902;12.308;2023-01-30T06:45:44;95762.19;;;-4.98;91.85
69171;BME280;56279;47.902;12.308;2023-01-30T06:47:50;95760.72;;;-4.93;91.80
69171;BME280;56279;47.902;12.308;2023-01-30T06:49:52;95767.94;;;-4.88;91.28
69171;BME280;56279;47.902;12.308;2023-01-30T06:51:53;95773.34;;;-4.83;91.77
69171;BME280;56279;47.902;12.308;2023-01-30T06:53:54;95769.13;;;-4.76;91.35
69171;BME280;56279;47.902;12.308;2023-01-30T06:55:57;95765.53;;;-4.67;91.46
69171;BME280;56279;47.902;12.308;2023-01-30T06:58:12;95760.94;;;-4.57;91.51
69171;BME280;56279;47.902;12.308;2023-01-30T07:00:18;95761.69;;;-4.48;91.45
69171;BME280;56279;47.902;12.308;2023-01-30T07:02:20;95761.25;;;-4.37;90.37
69171;BME280;56279;47.902;12.308;2023-01-30T07:04:21;95769.09;;;-4.31;91.10
69171;BME280;56279;47.902;12.308;2023-01-30T07:06:25;95782.88;;;-4.24;90.13
69171;BME280;56279;47.902;12.308;2023-01-30T07:08:26;95781.38;;;-4.18;90.66
69171;BME280;56279;47.902;12.308;2023-01-30T07:10:29;95791.16;;;-4.13;90.43
69171;BME280;56279;47.902;12.308;2023-01-30T07:12:33;95790.47;;;-4.07;89.97
69171;BME280;56279;47.902;12.308;2023-01-30T07:14:34;95782.38;;;-4.04;90.20
69171;BME280;56279;47.902;12.308;2023-01-30T07:16:35;95787.00;;;-4.00;89.59
69171;BME280;56279;47.902;12.308;2023-01-30T07:18:36;95779.72;;;-3.96;89.75
69171;BME280;56279;47.902;12.308;2023-01-30T07:20:39;95780.53;;;-3.96;90.24
69171;BME280;56279;47.902;12.308;2023-01-30T07:22:48;95776.97;;;-3.95;89.41
69171;BME280;56279;47.902;12.308;2023-01-30T07:24:49;95773.78;;;-3.97;89.60
69171;BME280;56279;47.902;12.308;2023-01-30T07:26:50;95764.25;;;-3.96;90.01
69171;BME280;56279;47.902;12.308;2023-01-30T07:28:53;95765.25;;;-3.97;90.19
69171;BME280;56279;47.902;12.308;2023-01-30T07:30:58;95765.25;;;-3.97;89.74
69171;BME280;56279;47.902;12.308;2023-01-30T07:33:02;95762.28;;;-3.94;89.90
69171;BME280;56279;47.902;12.308;2023-01-30T07:35:04;95752.00;;;-3.94;90.06
69171;BME280;56279;47.902;12.308;2023-01-30T07:37:07;95755.22;;;-3.92;90.35
69171;BME280;56279;47.902;12.308;2023-01-30T07:39:09;95749.25;;;-3.93;89.85
69171;BME280;56279;47.902;12.308;2023-01-30T07:41:10;95761.78;;;-3.90;90.01
69171;BME280;56279;47.902;12.308;2023-01-30T07:43:12;95766.75;;;-3.88;90.18
69171;BME280;56279;47.902;12.308;2023-01-30T07:45:13;95757.06;;;-3.86;90.50
69171;BME280;56279;47.902;12.308;2023-01-30T07:47:14;95765.44;;;-3.84;89.57
69171;BME280;56279;47.902;12.308;2023-01-30T07:49:16;95763.31;;;-3.81;89.81
69171;BME280;56279;47.902;12.308;2023-01-30T07:51:17;95776.47;;;-3.76;90.33
69171;BME280;56279;47.902;12.308;2023-01-30T07:53:18;95774.13;;;-3.71;90.11
69171;BME280;56279;47.902;12.308;2023-01-30T07:55:19;95772.81;;;-3.67;89.25
69171;BME280;56279;47.902;12.308;2023-01-30T07:57:21;95773.53;;;-3.58;89.27
69171;BME280;56279;47.902;12.308;2023-01-30T07:59:22;95780.38;;;-3.51;89.89
69171;BME280;56279;47.902;12.308;2023-01-30T08:01:23;95776.44;;;-3.46;89.26
69171;BME280;56279;47.902;12.308;2023-01-30T08:03:25;95771.22;;;-3.38;88.96
69171;BME280;56279;47.902;12.308;2023-01-30T08:05:26;95788.72;;;-3.34;89.05
69171;BME280;56279;47.902;12.308;2023-01-30T08:07:27;95787.72;;;-3.33;88.54
69171;BME280;56279;47.902;12.308;2023-01-30T08:09:28;95774.47;;;-3.30;89.34
69171;BME280;56279;47.902;12.308;2023-01-30T08:11:30;95780.88;;;-3.26;89.19
69171;BME280;56279;47.902;12.308;2023-01-30T08:13:31;95793.25;;;-3.21;88.98
69171;BME280;56279;47.902;12.308;2023-01-30T08:15:32;95786.72;;;-3.17;88.71
69171;BME280;56279;47.902;12.308;2023-01-30T08:17:34;95781.06;;;-3.13;88.68
69171;BME280;56279;47.902;12.308;2023-01-30T08:19:35;95774.53;;;-3.09;88.92
69171;BME280;56279;47.902;12.308;2023-01-30T08:21:38;95765.09;;;-3.02;88.87
69171;BME280;56279;47.902;12.308;2023-01-30T08:23:39;95759.44;;;-2.91;88.33
69171;BME280;56279;47.902;12.308;2023-01-30T08:25:41;95757.78;;;-2.77;88.19
69171;BME280;56279;47.902;12.308;2023-01-30T08:27:42;95753.53;;;-2.63;87.83
69171;BME280;56279;47.902;12.308;2023-01-30T08:29:46;95749.13;;;-2.48;87.87
69171;BME280;56279;47.902;12.308;2023-01-30T08:31:49;95754.28;;;-2.27;88.05
69171;BME280;56279;47.902;12.308;2023-01-30T08:33:50;95751.66;;;-2.06;87.20
69171;BME280;56279;47.902;12.308;2023-01-30T08:35:51;95745.44;;;-1.84;86.58
69171;BME280;56279;47.902;12.308;2023-01-30T08:37:54;95741.00;;;-1.62;86.45
69171;BME280;56279;47.902;12.308;2023-01-30T08:39:55;95740.47;;;-1.45;86.04
69171;BME280;56279;47.902;12.308;2023-01-30T08:41:56;95742.34;;;-1.25;85.58
69171;BME280;56279;47.902;12.308;2023-01-30T08:43:58;95730.69;;;-1.08;84.94
69171;BME280;56279;47.902;12.308;2023-01-30T08:45:59;95732.09;;;-0.99;84.24
69171;BME280;56279;47.902;12.308;2023-01-30T08:48:02;95737.09;;;-0.91;83.35
69171;BME280;56279;47.902;12.308;2023-01-30T08:50:04;95738.53;;;-0.82;83.16
69171;BME280;56279;47.902;12.308;2023-01-30T08:52:06;95731.56;;;-0.75;83.63
69171;BME280;56279;47.902;12.308;2023-01-30T08:54:08;95737.75;;;-0.63;82.65
69171;BME280;56279;47.902;12.308;2023-01-30T08:56:10;95733.19;;;-0.54;82.28
69171;BME280;56279;47.902;12.308;2023-01-30T08:58:11;95735.56;;;-0.46;82.06
69171;BME280;56279;47.902;12.308;2023-01-30T09:00:13;95711.25;;;-0.39;82.04
69171;BME280;56279;47.902;12.308;2023-01-30T09:02:15;95713.06;;;-0.33;80.85
69171;BME280;56279;47.902;12.308;2023-01-30T09:04:17;95704.28;;;-0.32;80.69
69171;BME280;56279;47.902;12.308;2023-01-30T09:06:18;95696.91;;;-0.28;80.59
69171;BME280;56279;47.902;12.308;2023-01-30T09:08:19;95708.09;;;-0.21;80.67
69171;BME280;56279;47.902;12.308;2023-01-30T09:10:21;95705.47;;;-0.15;80.29
69171;BME280;56279;47.902;12.308;2023-01-30T09:12:24;95703.69;;;-0.08;79.85
69171;BME280;56279;47.902;12.308;2023-01-30T09:14:26;95704.84;;;0.03;79.96
69171;BME280;56279;47.902;12.308;2023-01-30T09:16:27;95714.00;;;0.12;79.29
69171;BME280;56279;47.902;12.308;2023-01-30T09:18:31;95705.81;;;0.22;78.80
69171;BME280;56279;47.902;12.308;2023-01-30T09:20:33;95711.59;;;0.30;78.69
69171;BME280;56279;47.902;12.308;2023-01-30T09:22:34;95713.97;;;0.38;78.07
69171;BME280;56279;47.902;12.308;2023-01-30T09:24:35;95707.16;;;0.44;78.40
69171;BME280;56279;47.902;12.308;2023-01-30T09:26:37;95705.13;;;0.52;77.35
69171;BME280;56279;47.902;12.308;2023-01-30T09:28:40;95699.72;;;0.60;77.32
69171;BME280;56279;47.902;12.308;2023-01-30T09:30:41;95698.88;;;0.66;77.29
69171;BME280;56279;47.902;12.308;2023-01-30T09:32:43;95692.69;;;0.74;75.67
69171;BME280;56279;47.902;12.308;2023-01-30T09:34:44;95698.19;;;0.84;76.06
69171;BME280;56279;47.902;12.308;2023-01-30T09:36:45;95694.56;;;0.92;75.24
69171;BME280;56279;47.902;12.308;2023-01-30T09:38:47;95681.34;;;1.00;74.36
69171;BME280;56279;47.902;12.308;2023-01-30T09:43:03;95698.47;;;1.14;72.62
69171;BME280;56279;47.902;12.308;2023-01-30T09:45:25;95696.19;;;1.24;73.15
69171;BME280;56279;47.902;12.308;2023-01-30T09:50:18;95700.88;;;1.47;72.89
69171;BME280;56279;47.902;12.308;2023-01-30T09:57:21;95687.53;;;1.61;71.65
69171;BME280;56279;47.902;12.308;2023-01-30T09:59:29;95686.19;;;1.59;71.53
69171;BME280;56279;47.902;12.308;2023-01-30T10:04:10;95672.09;;;1.42;71.35
69171;BME280;56279;47.902;12.308;2023-01-30T10:06:15;95669.09;;;1.38;72.08
69171;BME280;56279;47.902;12.308;2023-01-30T10:17:36;95660.13;;;1.09;71.54
69171;BME280;56279;47.902;12.308;2023-01-30T10:26:41;95628.00;;;0.97;71.87
69171;BME280;56279;47.902;12.308;2023-01-30T10:31:19;95636.72;;;1.09;72.13
69171;BME280;56279;47.902;12.308;2023-01-30T10:33:29;95642.41;;;1.24;71.76
69171;BME280;56279;47.902;12.308;2023-01-30T10:35:38;95632.41;;;1.53;71.55
69171;BME280;56279;47.902;12.308;2023-01-30T10:40:25;95627.56;;;2.17;69.20
69171;BME280;56279;47.902;12.308;2023-01-30T10:42:37;95628.75;;;2.39;69.61
69171;BME280;56279;47.902;12.308;2023-01-30T10:44:40;95610.94;;;2.54;68.47
69171;BME280;56279;47.902;12.308;2023-01-30T10:48:51;95577.88;;;2.85;68.25
69171;BME280;56279;47.902;12.308;2023-01-30T10:53:32;95568.75;;;3.05;66.77
69171;BME280;56279;47.902;12.308;2023-01-30T10:57:52;95588.03;;;3.27;65.58
69171;BME280;56279;47.902;12.308;2023-01-30T11:00:02;95587.16;;;3.33;65.66
69171;BME280;56279;47.902;12.308;2023-01-30T11:02:24;95585.44;;;3.39;65.56
69171;BME280;56279;47.902;12.308;2023-01-30T11:05:08;95581.38;;;3.43;64.56
69171;BME280;56279;47.902;12.308;2023-01-30T11:07:00;95573.44;;;3.38;64.00
69171;BME280;56279;47.902;12.308;2023-01-30T11:09:03;95572.97;;;3.41;64.55
69171;BME280;56279;47.902;12.308;2023-01-30T11:11:34;95570.25;;;3.36;64.98
69171;BME280;56279;47.902;12.308;2023-01-30T11:13:41;95576.22;;;3.25;65.36
69171;BME280;56279;47.902;12.308;2023-01-30T11:15:45;95574.78;;;3.17;64.73
69171;BME280;56279;47.902;12.308;2023-01-30T11:17:48;95574.41;;;3.14;65.11
69171;BME280;56279;47.902;12.308;2023-01-30T11:19:54;95537.91;;;3.14;64.55
69171;BME280;56279;47.902;12.308;2023-01-30T11:22:03;95549.47;;;3.18;64.68
69171;BME280;56279;47.902;12.308;2023-01-30T11:24:13;95540.19;;;3.22;63.47
69171;BME280;56279;47.902;12.308;2023-01-30T11:26:29;95517.19;;;3.30;64.13
69171;BME280;56279;47.902;12.308;2023-01-30T11:28:40;95517.84;;;3.26;63.85
69171;BME280;56279;47.902;12.308;2023-01-30T11:30:43;95515.00;;;3.16;63.95
69171;BME280;56279;47.902;12.308;2023-01-30T11:32:50;95512.63;;;3.14;64.54
69171;BME280;56279;47.902;12.308;2023-01-30T11:37:30;95507.06;;;3.11;63.82
69171;BME280;56279;47.902;12.308;2023-01-30T11:39:32;95490.97;;;3.14;64.68
69171;BME280;56279;47.902;12.308;2023-01-30T11:41:34;95490.06;;;3.20;64.59
69171;BME280;56279;47.902;12.308;2023-01-30T11:43:38;95481.59;;;3.24;65.50
69171;BME280;56279;47.902;12.308;2023-01-30T11:45:46;95470.00;;;3.32;65.06
69171;BME280;56279;47.902;12.308;2023-01-30T11:48:13;95467.88;;;3.40;65.32
69171;BME280;56279;47.902;12.308;2023-01-30T11:50:17;95479.66;;;3.55;65.67
69171;BME280;56279;47.902;12.308;2023-01-30T11:52:24;95464.06;;;3.71;65.16
69171;BME280;56279;47.902;12.308;2023-01-30T11:54:38;95458.69;;;3.89;64.50
69171;BME280;56279;47.902;12.308;2023-01-30T11:57:03;95456.59;;;4.03;63.80
69171;BME280;56279;47.902;12.308;2023-01-30T12:01:26;95449.84;;;4.18;63.76
69171;BME280;56279;47.902;12.308;2023-01-30T12:03:31;95446.22;;;4.19;63.10
69171;BME280;56279;47.902;12.308;2023-01-30T12:05:37;95430.75;;;4.18;62.91
69171;BME280;56279;47.902;12.308;2023-01-30T12:07:46;95433.75;;;4.10;63.61